createdAt,value
2022-08-11T15:01:48.952Z,42.25
2022-08-11T15:04:36.315Z,41.90
2022-08-11T15:07:05.350Z,42.12
2022-08-11T15:10:11.795Z,42.27
2022-08-11T15:12:36.605Z,42.18
2022-08-11T15:15:26.699Z,42.17
2022-08-11T15:17:57.592Z,41.88
2022-08-11T15:20:48.420Z,40.86
2022-08-11T15:23:40.330Z,40.79
2022-08-11T15:26:16.811Z,40.29
2022-08-11T15:29:08.097Z,40.76
2022-08-11T15:31:57.283Z,40.83
2022-08-11T15:34:47.568Z,41.41
2022-08-11T15:37:28.098Z,40.49
2022-08-11T15:40:31.212Z,40.18
2022-08-11T15:43:29.524Z,40.02
2022-08-11T15:46:02.458Z,40.16
2022-08-11T15:48:33.612Z,39.88
2022-08-11T15:52:01.584Z,39.92
2022-08-11T15:54:32.708Z,39.80
2022-08-11T15:57:02.418Z,41.13
2022-08-11T15:59:53.128Z,41.21
2022-08-11T16:02:41.430Z,41.38
2022-08-11T16:05:13.565Z,40.62
2022-08-11T16:07:43.211Z,40.50
2022-08-11T16:10:21.872Z,40.67
2022-08-11T16:13:06.784Z,40.64
2022-08-11T16:16:11.209Z,40.86
2022-08-11T16:18:51.875Z,40.79
2022-08-11T16:21:35.036Z,40.99
2022-08-11T16:26:30.600Z,41.07
2022-08-11T16:27:13.666Z,41.15
2022-08-11T16:29:48.009Z,41.49
2022-08-11T16:32:23.332Z,41.14
2022-08-11T16:35:21.436Z,41.26
2022-08-11T16:38:09.203Z,41.52
2022-08-11T16:40:39.324Z,41.74
2022-08-11T16:43:28.727Z,42.35
2022-08-11T16:46:17.605Z,42.43
2022-08-11T16:48:49.606Z,43.04
2022-08-11T16:51:21.217Z,43.29
2022-08-11T16:54:04.511Z,43.19
2022-08-11T16:56:42.218Z,43.45
2022-08-11T16:59:20.548Z,43.80
2022-08-11T17:01:58.302Z,43.57
2022-08-11T17:05:05.673Z,43.47
2022-08-11T17:07:52.892Z,43.56
2022-08-11T17:10:53.257Z,43.56
2022-08-11T17:13:31.940Z,43.57
2022-08-11T17:16:07.753Z,43.22
2022-08-11T17:18:43.466Z,43.36
2022-08-11T17:21:20.583Z,43.71
2022-08-11T17:23:55.476Z,43.43
2022-08-11T17:26:55.787Z,43.71
2022-08-11T17:29:33.917Z,44.03
2022-08-11T17:32:56.700Z,45.00
2022-08-11T17:35:46.996Z,46.14
2022-08-11T17:38:21.666Z,46.69
2022-08-11T17:41:23.777Z,47.25
2022-08-11T17:44:12.745Z,47.50
2022-08-11T17:47:05.682Z,47.92
2022-08-11T17:49:38.041Z,48.39
2022-08-11T17:52:26.589Z,48.50
2022-08-11T17:55:14.593Z,49.47
2022-08-11T17:58:02.628Z,50.13
2022-08-11T18:00:31.972Z,50.49
2022-08-11T18:03:20.352Z,51.45
2022-08-11T18:05:49.283Z,52.62
2022-08-11T18:08:39.495Z,53.23
2022-08-11T18:12:06.962Z,53.81
2022-08-11T18:14:37.127Z,54.86
2022-08-11T18:17:24.625Z,55.36
2022-08-11T18:20:11.294Z,55.85
2022-08-11T18:23:03.470Z,56.57
2022-08-11T18:26:01.393Z,57.03
2022-08-11T18:28:56.774Z,57.52
2022-08-11T18:31:45.141Z,58.31
2022-08-11T18:34:35.488Z,58.64
2022-08-11T18:37:29.108Z,58.50
2022-08-11T18:40:29.326Z,58.71
2022-08-11T18:43:26.408Z,58.82
2022-08-11T18:46:20.222Z,59.20
2022-08-11T18:49:26.634Z,59.44
2022-08-11T18:52:24.714Z,60.39
2022-08-11T18:55:17.185Z,60.52
2022-08-11T18:58:08.135Z,61.00
2022-08-11T19:00:57.331Z,61.66
2022-08-11T19:03:49.372Z,61.78
2022-08-11T19:06:41.308Z,62.22
2022-08-11T19:09:33.620Z,62.42
2022-08-11T19:12:22.062Z,62.73
2022-08-11T19:15:10.917Z,63.25
2022-08-11T19:18:03.594Z,63.40
2022-08-11T19:20:53.737Z,64.00
2022-08-11T19:24:02.703Z,64.31
2022-08-11T19:26:52.525Z,64.63
2022-08-11T19:30:04.797Z,65.10
2022-08-11T19:32:49.835Z,65.53
2022-08-11T19:35:37.736Z,65.68
2022-08-11T19:38:24.217Z,66.26
2022-08-11T19:41:12.733Z,66.48
2022-08-11T19:44:03.764Z,66.73
2022-08-11T19:46:51.145Z,67.21
2022-08-11T19:49:38.592Z,67.61
2022-08-11T19:52:25.605Z,67.85
2022-08-11T19:55:12.653Z,67.65
2022-08-11T19:58:00.880Z,67.59
2022-08-11T20:00:48.730Z,68.08
2022-08-11T20:03:35.318Z,68.58
2022-08-11T20:06:25.449Z,69.11
2022-08-11T20:09:17.072Z,69.57
2022-08-11T20:12:08.633Z,69.91
2022-08-11T20:14:58.334Z,70.23
2022-08-11T20:17:47.977Z,70.59
2022-08-11T20:20:36.345Z,70.74
2022-08-11T20:23:27.282Z,70.96
2022-08-11T20:26:30.688Z,71.06
2022-08-11T20:29:19.816Z,71.17
2022-08-11T20:32:09.593Z,71.28
2022-08-11T20:34:57.973Z,71.59
2022-08-11T20:37:50.766Z,71.77
2022-08-11T20:40:39.804Z,71.67
2022-08-11T20:44:06.147Z,71.40
2022-08-11T20:46:39.004Z,71.27
2022-08-11T20:52:38.204Z,71.47
2022-08-11T20:55:51.598Z,71.61
2022-08-11T20:59:04.072Z,71.75
2022-08-11T21:01:44.452Z,71.80
2022-08-11T21:04:32.409Z,70.79
2022-08-11T21:07:41.199Z,70.29
2022-08-11T21:10:29.966Z,69.93
2022-08-11T21:13:27.017Z,69.50
2022-08-11T21:16:26.175Z,69.69
2022-08-11T21:20:00.389Z,69.82
2022-08-11T21:22:59.706Z,69.90
2022-08-11T21:26:02.112Z,68.92
2022-08-11T21:28:50.648Z,67.32
2022-08-11T21:31:38.621Z,66.96
2022-08-11T21:34:27.038Z,66.48
2022-08-11T21:37:14.036Z,66.81
2022-08-11T21:40:01.802Z,67.13
2022-08-11T21:42:50.935Z,67.40
2022-08-11T21:45:38.724Z,67.61
2022-08-11T21:48:27.489Z,67.49
2022-08-11T21:51:14.011Z,67.09
2022-08-11T21:54:01.250Z,66.80
2022-08-11T21:56:49.617Z,66.74
2022-08-11T21:59:42.450Z,66.03
2022-08-11T22:02:28.711Z,66.26
2022-08-11T22:05:15.849Z,66.69
2022-08-11T22:08:02.562Z,66.20
2022-08-11T22:10:49.445Z,66.33
2022-08-11T22:13:35.971Z,66.10
2022-08-11T22:16:23.042Z,66.56
2022-08-11T22:19:10.912Z,67.15
2022-08-11T22:22:03.913Z,67.46
2022-08-11T22:24:52.335Z,67.30
2022-08-11T22:27:40.558Z,67.49
2022-08-11T22:30:29.801Z,67.49
2022-08-11T22:33:27.016Z,66.70
2022-08-11T22:36:16.935Z,66.10
2022-08-11T22:39:05.983Z,66.34
2022-08-11T22:41:52.821Z,66.02
2022-08-11T22:44:39.496Z,65.77
2022-08-11T22:47:40.335Z,65.48
2022-08-11T22:50:28.785Z,65.20
2022-08-11T22:53:16.561Z,64.83
2022-08-11T22:56:03.854Z,64.63
2022-08-11T22:58:51.900Z,64.38
2022-08-11T23:01:39.229Z,64.74
2022-08-11T23:04:42.523Z,64.15
2022-08-11T23:07:49.817Z,64.26
2022-08-11T23:10:37.711Z,63.81
2022-08-11T23:13:25.007Z,63.58
2022-08-11T23:16:15.611Z,63.18
2022-08-11T23:19:02.769Z,62.98
2022-08-11T23:21:50.981Z,63.05
2022-08-11T23:24:40.159Z,62.76
2022-08-11T23:27:28.659Z,62.83
2022-08-11T23:30:19.274Z,63.06
2022-08-11T23:33:12.691Z,63.46
2022-08-11T23:36:05.323Z,63.32
2022-08-11T23:38:53.024Z,63.11
2022-08-11T23:41:40.313Z,62.97
2022-08-11T23:44:27.667Z,63.12
2022-08-11T23:47:18.260Z,63.04
2022-08-11T23:50:07.160Z,63.21
2022-08-11T23:52:55.596Z,63.26
2022-08-11T23:55:41.902Z,63.53
2022-08-11T23:58:30.414Z,63.23
